createdAt,value
2023-04-03T00:00:21.537Z,102216.81
2023-04-03T00:02:48.137Z,102190.34
2023-04-03T00:05:14.850Z,102200.44
2023-04-03T00:07:41.507Z,102224.47
2023-04-03T00:10:08.933Z,102200.84
2023-04-03T00:12:35.665Z,102176.75
2023-04-03T00:15:02.135Z,102205.69
2023-04-03T00:17:28.709Z,102191.41
2023-04-03T00:19:55.188Z,102191.06
2023-04-03T00:22:21.778Z,102218.53
2023-04-03T00:24:48.248Z,102216.72
2023-04-03T00:27:14.755Z,102203.38
2023-04-03T00:29:41.226Z,102219.22
2023-04-03T00:32:07.756Z,102216.47
2023-04-03T00:34:34.370Z,102216.09
2023-04-03T00:37:00.985Z,102219.41
2023-04-03T00:39:28.309Z,102190.97
2023-04-03T00:41:54.836Z,102199.38
2023-04-03T00:44:36.565Z,102218.53
2023-04-03T00:47:05.362Z,102218.91
2023-04-03T00:49:32.064Z,102217.63
2023-04-03T00:51:59.260Z,102230.81
2023-04-03T00:54:26.786Z,102192.00
2023-04-03T00:56:54.638Z,102233.22
2023-04-03T00:59:32.345Z,102240.38
2023-04-03T01:02:00.242Z,102249.41
2023-04-03T01:04:40.432Z,102242.88
2023-04-03T01:07:10.455Z,102207.25
2023-04-03T01:09:37.816Z,102217.34
2023-04-03T01:12:31.324Z,102205.41
2023-04-03T01:15:00.562Z,102223.19
2023-04-03T01:17:36.262Z,102243.84
2023-04-03T01:20:35.993Z,102245.81
2023-04-03T01:23:14.539Z,102244.19
2023-04-03T01:25:45.780Z,102234.97
2023-04-03T01:28:16.491Z,102249.25
2023-04-03T01:31:06.303Z,102240.06
2023-04-03T01:33:32.893Z,102223.38
2023-04-03T01:35:59.470Z,102243.56
2023-04-03T01:38:26.587Z,102215.09
2023-04-03T01:40:53.073Z,102251.78
2023-04-03T01:43:19.580Z,102246.66
2023-04-03T01:45:47.409Z,102229.38
2023-04-03T01:48:14.444Z,102209.56
2023-04-03T01:50:41.013Z,102241.16
2023-04-03T01:53:07.539Z,102235.78
2023-04-03T01:55:34.080Z,102230.00
2023-04-03T01:58:00.619Z,102251.97
2023-04-03T02:00:27.655Z,102224.78
2023-04-03T02:02:54.438Z,102235.28
2023-04-03T02:05:21.079Z,102239.72
2023-04-03T02:07:47.785Z,102213.09
2023-04-03T02:10:14.461Z,102232.34
2023-04-03T02:12:41.263Z,102243.47
2023-04-03T02:15:08.251Z,102243.69
2023-04-03T02:17:37.606Z,102247.59
2023-04-03T02:20:05.027Z,102260.75
2023-04-03T02:22:31.817Z,102243.16
2023-04-03T02:24:58.366Z,102257.97
2023-04-03T02:27:25.267Z,102247.41
2023-04-03T02:29:51.722Z,102243.56
2023-04-03T02:32:18.253Z,102251.44
2023-04-03T02:34:44.796Z,102264.16
2023-04-03T02:37:11.333Z,102255.97
2023-04-03T02:39:38.099Z,102281.00
2023-04-03T02:42:04.853Z,102260.00
2023-04-03T02:44:31.688Z,102275.19
2023-04-03T02:46:58.220Z,102246.19
2023-04-03T02:49:24.944Z,102285.41
2023-04-03T02:51:52.239Z,102246.94
2023-04-03T02:54:18.852Z,102276.00
2023-04-03T02:56:45.448Z,102252.91
2023-04-03T02:59:11.957Z,102277.06
2023-04-03T03:01:38.614Z,102260.19
2023-04-03T03:04:05.319Z,102240.31
2023-04-03T03:06:31.794Z,102289.47
2023-04-03T03:08:58.256Z,102261.13
2023-04-03T03:11:24.783Z,102269.66
2023-04-03T03:13:51.528Z,102285.72
2023-04-03T03:16:18.339Z,102276.91
2023-04-03T03:18:44.848Z,102283.00
2023-04-03T03:21:11.821Z,102229.53
2023-04-03T03:23:38.431Z,102266.78
2023-04-03T03:26:07.817Z,102259.53
2023-04-03T03:28:34.501Z,102256.06
2023-04-03T03:31:02.070Z,102244.38
2023-04-03T03:33:28.730Z,102285.19
2023-04-03T03:35:55.682Z,102276.28
2023-04-03T03:38:22.982Z,102283.19
2023-04-03T03:40:49.830Z,102286.84
2023-04-03T03:43:16.863Z,102268.06
2023-04-03T03:45:43.469Z,102250.47
2023-04-03T03:48:09.960Z,102257.47
2023-04-03T03:50:36.542Z,102281.22
2023-04-03T03:53:03.052Z,102286.94
2023-04-03T03:55:29.652Z,102284.28
2023-04-03T03:57:56.524Z,102274.81
2023-04-03T04:00:23.139Z,102284.31
2023-04-03T04:02:49.750Z,102247.88
2023-04-03T04:05:16.374Z,102261.53
2023-04-03T04:07:43.181Z,102270.34
2023-04-03T04:10:10.088Z,102288.34
2023-04-03T04:12:36.892Z,102259.88
2023-04-03T04:15:04.393Z,102268.00
2023-04-03T04:17:31.278Z,102303.06
2023-04-03T04:19:57.945Z,102304.91
2023-04-03T04:22:24.773Z,102268.06
2023-04-03T04:24:51.317Z,102303.56
2023-04-03T04:27:17.905Z,102265.44
2023-04-03T04:29:44.394Z,102253.97
2023-04-03T04:32:11.166Z,102257.81
2023-04-03T04:34:37.745Z,102259.66
2023-04-03T04:37:04.408Z,102276.75
2023-04-03T04:39:31.242Z,102254.75
2023-04-03T04:41:57.832Z,102305.06
2023-04-03T04:44:24.578Z,102281.53
2023-04-03T04:46:51.100Z,102303.31
2023-04-03T04:49:18.082Z,102310.94
2023-04-03T04:51:51.684Z,102286.97
2023-04-03T04:54:19.102Z,102314.84
2023-04-03T04:56:45.857Z,102313.50
2023-04-03T04:59:12.370Z,102299.44
2023-04-03T05:01:39.034Z,102289.28
2023-04-03T05:04:05.774Z,102332.72
2023-04-03T05:06:32.923Z,102310.69
2023-04-03T05:09:00.724Z,102334.22
2023-04-03T05:11:27.495Z,102335.06
2023-04-03T05:13:53.966Z,102338.84
2023-04-03T05:16:20.581Z,102289.63
2023-04-03T05:18:47.205Z,102313.91
2023-04-03T05:21:13.681Z,102334.38
2023-04-03T05:23:40.284Z,102354.25
2023-04-03T05:26:06.921Z,102329.47
2023-04-03T05:28:33.463Z,102307.03
2023-04-03T05:31:00.309Z,102355.47
2023-04-03T05:33:27.346Z,102302.09
2023-04-03T05:35:55.101Z,102329.78
2023-04-03T05:38:21.616Z,102362.06
2023-04-03T05:40:48.410Z,102345.63
2023-04-03T05:43:15.033Z,102364.47
2023-04-03T05:45:41.870Z,102350.63
2023-04-03T05:48:08.382Z,102372.34
2023-04-03T05:50:34.905Z,102387.41
2023-04-03T05:53:03.370Z,102360.56
2023-04-03T05:55:29.873Z,102348.78
2023-04-03T05:57:56.524Z,102355.00
2023-04-03T06:00:23.569Z,102353.28
2023-04-03T06:02:50.614Z,102389.59
2023-04-03T06:05:17.256Z,102366.19
2023-04-03T06:07:45.605Z,102363.16
2023-04-03T06:10:13.697Z,102395.13
2023-04-03T06:12:40.501Z,102413.09
2023-04-03T06:15:09.244Z,102404.53
2023-04-03T06:17:36.001Z,102411.59
2023-04-03T06:20:03.087Z,102399.50
2023-04-03T06:22:30.989Z,102378.56
2023-04-03T06:24:58.377Z,102387.19
2023-04-03T06:27:25.221Z,102411.19
2023-04-03T06:29:51.992Z,102379.94
2023-04-03T06:32:18.445Z,102372.06
2023-04-03T06:34:44.931Z,102412.75
2023-04-03T06:37:23.637Z,102404.06
2023-04-03T06:39:50.377Z,102378.00
2023-04-03T06:42:17.203Z,102414.91
2023-04-03T06:44:43.700Z,102389.38
2023-04-03T06:47:17.232Z,102418.47
2023-04-03T06:49:44.011Z,102427.53
2023-04-03T06:52:10.866Z,102420.59
2023-04-03T06:54:37.478Z,102383.19
2023-04-03T06:57:04.310Z,102398.97
2023-04-03T06:59:31.036Z,102380.06
2023-04-03T07:01:57.754Z,102415.47
2023-04-03T07:04:24.315Z,102415.78
2023-04-03T07:06:51.670Z,102432.91
2023-04-03T07:09:18.190Z,102431.53
2023-04-03T07:11:44.676Z,102419.81
2023-04-03T07:14:11.150Z,102439.91
2023-04-03T07:16:39.570Z,102410.63
2023-04-03T07:19:09.776Z,102430.84
2023-04-03T07:21:36.446Z,102389.59
2023-04-03T07:24:03.045Z,102454.97
2023-04-03T07:26:30.587Z,102450.53
2023-04-03T07:29:05.528Z,102434.53
2023-04-03T07:31:32.421Z,102461.69
2023-04-03T07:33:59.202Z,102454.53
2023-04-03T07:36:26.029Z,102432.69
2023-04-03T07:38:52.667Z,102457.16
2023-04-03T07:41:21.053Z,102446.94
2023-04-03T07:43:48.085Z,102437.53
2023-04-03T07:46:15.168Z,102450.31
2023-04-03T07:48:41.751Z,102457.53
2023-04-03T07:51:08.620Z,102435.59
2023-04-03T07:53:35.251Z,102441.69
2023-04-03T07:56:03.681Z,102453.41
2023-04-03T07:58:30.562Z,102435.69
2023-04-03T08:00:57.278Z,102443.75
2023-04-03T08:03:23.985Z,102472.00
2023-04-03T08:05:51.897Z,102470.69
2023-04-03T08:08:21.640Z,102460.38
2023-04-03T08:10:53.174Z,102332.44
2023-04-03T08:13:20.286Z,102479.19
2023-04-03T08:15:47.426Z,102485.19
2023-04-03T08:18:15.743Z,102479.47
2023-04-03T08:20:42.789Z,102481.19
2023-04-03T08:23:09.826Z,102469.47
2023-04-03T08:25:41.440Z,102343.75
2023-04-03T08:28:08.640Z,102479.19
2023-04-03T08:30:35.713Z,102478.88
2023-04-03T08:33:03.019Z,102442.22
2023-04-03T08:35:30.040Z,102469.59
2023-04-03T08:37:57.412Z,102471.53
2023-04-03T08:40:25.008Z,102438.63
2023-04-03T08:42:57.691Z,102466.88
2023-04-03T08:45:54.583Z,102475.19
2023-04-03T08:48:24.173Z,102478.66
2023-04-03T08:51:16.216Z,102454.34
2023-04-03T08:54:03.281Z,102482.97
2023-04-03T08:56:31.874Z,102444.44
2023-04-03T08:59:02.296Z,102459.03
2023-04-03T09:01:33.410Z,102479.06
2023-04-03T09:04:02.211Z,102474.91
2023-04-03T09:06:33.875Z,102473.44
2023-04-03T09:09:36.168Z,102471.16
2023-04-03T09:12:44.950Z,102464.94
2023-04-03T09:15:37.831Z,102462.16
2023-04-03T09:18:25.149Z,102467.09
2023-04-03T09:20:57.745Z,102466.75
2023-04-03T09:23:30.495Z,102468.53
2023-04-03T09:26:05.919Z,102475.06
2023-04-03T09:28:49.289Z,102475.44
2023-04-03T09:31:23.239Z,102442.13
2023-04-03T09:34:01.599Z,102476.44
2023-04-03T09:36:52.503Z,102485.06
2023-04-03T09:39:22.759Z,102450.75
2023-04-03T09:42:12.736Z,102466.88
2023-04-03T09:44:39.878Z,102468.31
2023-04-03T09:47:31.767Z,102451.19
2023-04-03T09:50:14.030Z,102445.22
2023-04-03T09:52:43.891Z,102438.09
2023-04-03T09:55:19.816Z,102439.50
2023-04-03T09:57:47.468Z,102408.09
2023-04-03T10:00:27.114Z,102430.59
2023-04-03T10:02:56.860Z,102413.66
2023-04-03T10:05:38.393Z,102412.00
2023-04-03T10:08:13.875Z,102409.06
2023-04-03T10:10:46.587Z,102405.88
2023-04-03T10:13:21.327Z,102413.22
2023-04-03T10:15:58.624Z,102410.19
2023-04-03T10:18:54.272Z,102410.44
2023-04-03T10:21:32.026Z,102400.09
2023-04-03T10:24:09.944Z,102394.97
2023-04-03T10:26:36.630Z,102390.22
2023-04-03T10:29:18.388Z,102388.09
2023-04-03T10:32:10.224Z,102363.59
2023-04-03T10:34:39.767Z,102396.47
2023-04-03T10:37:27.189Z,102389.38
2023-04-03T10:40:33.430Z,102389.38
2023-04-03T10:43:14.429Z,102374.91
2023-04-03T10:46:13.550Z,102385.00
2023-04-03T10:48:46.028Z,102383.94
2023-04-03T10:51:44.917Z,102392.63
2023-04-03T10:54:21.180Z,102381.31
2023-04-03T10:57:04.670Z,102388.75
2023-04-03T10:59:51.362Z,102382.88
2023-04-03T11:02:40.648Z,102373.81
2023-04-03T11:05:15.889Z,102367.63
2023-04-03T11:07:47.717Z,102369.91
2023-04-03T11:10:20.321Z,102379.59
2023-04-03T11:12:54.155Z,102378.25
2023-04-03T11:15:22.330Z,102360.50
2023-04-03T11:17:58.796Z,102360.72
2023-04-03T11:20:33.790Z,102361.66
2023-04-03T11:23:15.583Z,102378.50
2023-04-03T11:25:45.131Z,102341.94
2023-04-03T11:28:15.916Z,102359.38
2023-04-03T11:30:58.205Z,102355.72
2023-04-03T11:34:03.148Z,102351.25
2023-04-03T11:36:37.141Z,102359.59
2023-04-03T11:39:20.293Z,102337.34
2023-04-03T11:41:48.160Z,102322.31
2023-04-03T11:44:47.365Z,102330.69
2023-04-03T11:47:49.973Z,102327.75
2023-04-03T11:50:34.830Z,102332.59
2023-04-03T11:53:07.399Z,102326.63
2023-04-03T11:55:34.021Z,102318.00
2023-04-03T11:58:03.747Z,102324.75
2023-04-03T12:00:47.253Z,102310.97
2023-04-03T12:03:30.090Z,102328.97
2023-04-03T12:06:17.624Z,102322.72
2023-04-03T12:08:49.034Z,102321.97
2023-04-03T12:11:22.582Z,102322.41
2023-04-03T12:13:50.380Z,102306.66
2023-04-03T12:16:30.742Z,102324.59
2023-04-03T12:19:04.488Z,102322.75
2023-04-03T12:21:31.118Z,102326.19
2023-04-03T12:24:09.591Z,102322.38
2023-04-03T12:26:51.910Z,102330.84
2023-04-03T12:29:42.190Z,102325.06
2023-04-03T12:32:36.804Z,102332.59
2023-04-03T12:35:22.250Z,102317.97
2023-04-03T12:38:16.793Z,102314.69
2023-04-03T12:40:43.237Z,102307.41
2023-04-03T12:43:14.486Z,102308.03
2023-04-03T12:45:44.358Z,102283.22
2023-04-03T12:48:19.362Z,102301.59
2023-04-03T12:50:47.864Z,102275.97
2023-04-03T12:53:20.628Z,102298.00
2023-04-03T12:55:47.360Z,102276.53
2023-04-03T12:58:17.286Z,102273.25
2023-04-03T13:00:43.938Z,102300.53
2023-04-03T13:03:27.905Z,102291.56
2023-04-03T13:06:01.333Z,102267.09
2023-04-03T13:08:27.865Z,102243.44
2023-04-03T13:10:59.532Z,102267.97
2023-04-03T13:13:27.381Z,102283.22
2023-04-03T13:15:55.413Z,102289.38
2023-04-03T13:18:23.660Z,102258.50
2023-04-03T13:20:51.037Z,102273.78
2023-04-03T13:23:19.188Z,102265.03
2023-04-03T13:25:46.525Z,102284.38
2023-04-03T13:28:16.713Z,102292.34
2023-04-03T13:31:17.855Z,102275.94
2023-04-03T13:33:54.772Z,102284.13
2023-04-03T13:36:29.539Z,102258.34
2023-04-03T13:39:05.096Z,102281.13
2023-04-03T13:41:36.053Z,102278.50
2023-04-03T13:44:24.605Z,102273.38
2023-04-03T13:46:53.555Z,102123.25
2023-04-03T13:49:32.008Z,102261.53
2023-04-03T13:52:07.307Z,102263.63
2023-04-03T13:54:40.307Z,102250.13
2023-04-03T13:57:16.002Z,102252.78
2023-04-03T13:59:44.057Z,102261.09
2023-04-03T14:02:40.744Z,102256.41
2023-04-03T14:05:09.301Z,102259.03
2023-04-03T14:07:36.283Z,102219.19
2023-04-03T14:10:02.912Z,102241.53
2023-04-03T14:12:42.395Z,102238.53
2023-04-03T14:15:21.624Z,102219.22
2023-04-03T14:17:48.982Z,102087.31
2023-04-03T14:20:17.645Z,102247.38
2023-04-03T14:22:44.979Z,102232.59
2023-04-03T14:25:11.550Z,102220.13
2023-04-03T14:27:41.276Z,102233.50
2023-04-03T14:30:14.235Z,102232.53
2023-04-03T14:32:41.418Z,102205.78
2023-04-03T14:35:08.323Z,102170.19
2023-04-03T14:37:34.842Z,102192.34
2023-04-03T14:40:04.737Z,102164.66
2023-04-03T14:42:34.403Z,102211.88
2023-04-03T14:45:09.898Z,102210.06
2023-04-03T14:47:42.710Z,102208.97
2023-04-03T14:50:14.849Z,102189.00
2023-04-03T14:52:42.219Z,102216.59
2023-04-03T14:55:09.360Z,102222.06
2023-04-03T14:57:37.118Z,102197.91
2023-04-03T15:00:05.359Z,102176.28
2023-04-03T15:02:33.634Z,102219.91
2023-04-03T15:05:03.358Z,102198.81
2023-04-03T15:07:32.421Z,102182.56
2023-04-03T15:10:02.439Z,102174.59
2023-04-03T15:12:28.942Z,102158.38
2023-04-03T15:15:01.898Z,102180.63
2023-04-03T15:17:29.552Z,102196.00
2023-04-03T15:19:56.065Z,102050.88
2023-04-03T15:22:22.684Z,102180.22
2023-04-03T15:24:49.190Z,102207.59
2023-04-03T15:27:16.461Z,102180.50
2023-04-03T15:29:43.811Z,102055.19
2023-04-03T15:32:10.940Z,102200.94
2023-04-03T15:34:37.945Z,102198.69
2023-04-03T15:37:04.445Z,102197.88
2023-04-03T15:39:31.174Z,102190.44
2023-04-03T15:42:00.851Z,102198.53
2023-04-03T15:44:27.639Z,102172.19
2023-04-03T15:46:56.199Z,102188.16
2023-04-03T15:49:23.200Z,102159.59
2023-04-03T15:51:49.724Z,102175.19
2023-04-03T15:54:16.812Z,102200.97
2023-04-03T15:56:43.395Z,102200.75
2023-04-03T15:59:10.234Z,102203.41
2023-04-03T16:01:38.025Z,102206.22
2023-04-03T16:04:05.100Z,102213.56
2023-04-03T16:06:32.798Z,102175.53
2023-04-03T16:08:59.424Z,102209.06
2023-04-03T16:11:27.894Z,102199.25
2023-04-03T16:13:57.319Z,102203.13
2023-04-03T16:16:24.708Z,102208.31
2023-04-03T16:18:51.480Z,102213.78
2023-04-03T16:21:18.803Z,102182.81
2023-04-03T16:23:45.471Z,102210.59
2023-04-03T16:26:12.226Z,102206.25
2023-04-03T16:28:38.884Z,102210.53
2023-04-03T16:31:06.572Z,102211.84
2023-04-03T16:33:33.082Z,102164.63
2023-04-03T16:35:59.886Z,102212.63
2023-04-03T16:38:26.509Z,102195.94
2023-04-03T16:40:58.016Z,102169.59
2023-04-03T16:43:24.497Z,102181.53
2023-04-03T16:45:51.152Z,102210.63
2023-04-03T16:48:18.209Z,102210.28
2023-04-03T16:50:54.238Z,102198.91
2023-04-03T16:53:25.254Z,102198.00
2023-04-03T16:55:52.235Z,102203.22
2023-04-03T16:58:18.840Z,102198.69
2023-04-03T17:00:45.561Z,102213.91
2023-04-03T17:03:12.103Z,102182.25
2023-04-03T17:05:38.892Z,102219.25
2023-04-03T17:08:05.654Z,102207.72
2023-04-03T17:10:32.367Z,102216.50
2023-04-03T17:12:58.988Z,102207.34
2023-04-03T17:15:26.371Z,102222.41
2023-04-03T17:17:53.532Z,102223.06
2023-04-03T17:20:20.538Z,102202.38
2023-04-03T17:22:47.145Z,102179.72
2023-04-03T17:25:14.085Z,102178.38
2023-04-03T17:27:40.965Z,102189.75
2023-04-03T17:30:08.459Z,102205.28
2023-04-03T17:32:35.465Z,102216.94
2023-04-03T17:35:01.976Z,102202.69
2023-04-03T17:37:28.684Z,102219.06
2023-04-03T17:39:55.239Z,102218.56
2023-04-03T17:42:22.120Z,102224.09
2023-04-03T17:44:48.642Z,102176.22
2023-04-03T17:47:15.307Z,102193.34
2023-04-03T17:49:42.237Z,102221.69
2023-04-03T17:52:08.808Z,102219.16
2023-04-03T17:54:35.359Z,102214.81
2023-04-03T17:57:03.521Z,102230.88
2023-04-03T17:59:30.293Z,102092.84
2023-04-03T18:01:57.010Z,102214.56
2023-04-03T18:04:24.096Z,102223.66
2023-04-03T18:06:52.454Z,102225.84
2023-04-03T18:09:26.269Z,102219.88
2023-04-03T18:11:53.259Z,102222.22
2023-04-03T18:14:22.708Z,102224.97
2023-04-03T18:16:49.546Z,102226.28
2023-04-03T18:21:47.715Z,102197.28
2023-04-03T18:24:16.298Z,102185.78
2023-04-03T18:26:44.560Z,102220.84
2023-04-03T18:29:11.596Z,102227.53
2023-04-03T18:31:41.225Z,102177.34
2023-04-03T18:34:07.766Z,102210.09
2023-04-03T18:36:35.611Z,102224.50
2023-04-03T18:39:02.340Z,102206.59
2023-04-03T18:41:31.072Z,102230.91
2023-04-03T18:44:00.045Z,102179.13
2023-04-03T18:46:26.595Z,102220.47
2023-04-03T18:48:54.113Z,102231.25
2023-04-03T18:51:21.220Z,102229.19
2023-04-03T18:53:47.751Z,102211.13
2023-04-03T18:56:14.277Z,102220.47
2023-04-03T18:58:40.925Z,102208.75
2023-04-03T19:01:07.550Z,102211.75
2023-04-03T19:03:35.355Z,102207.94
2023-04-03T19:06:02.818Z,102234.28
2023-04-03T19:08:30.572Z,102234.97
2023-04-03T19:10:57.131Z,102232.31
2023-04-03T19:13:23.720Z,102244.06
2023-04-03T19:15:52.091Z,102241.69
2023-04-03T19:18:18.639Z,102228.06
2023-04-03T19:20:45.218Z,102232.44
2023-04-03T19:23:13.420Z,102223.56
2023-04-03T19:25:41.732Z,102237.41
2023-04-03T19:28:08.866Z,102256.91
2023-04-03T19:30:38.162Z,102247.06
2023-04-03T19:33:04.775Z,102260.09
2023-04-03T19:35:31.801Z,102253.59
2023-04-03T19:37:58.288Z,102248.09
2023-04-03T19:40:25.490Z,102236.78
2023-04-03T19:42:52.565Z,102240.38
2023-04-03T19:45:19.815Z,102233.41
2023-04-03T19:47:47.202Z,102216.63
2023-04-03T19:50:13.785Z,102246.31
2023-04-03T19:52:40.443Z,102202.81
2023-04-03T19:55:07.669Z,102229.00
2023-04-03T19:57:34.231Z,102229.44
2023-04-03T20:00:01.060Z,102251.31
2023-04-03T20:02:27.611Z,102245.84
2023-04-03T20:04:54.147Z,102228.94
2023-04-03T20:07:21.274Z,102225.56
2023-04-03T20:09:47.842Z,102185.69
2023-04-03T20:12:14.432Z,102238.34
2023-04-03T20:14:43.707Z,102232.50
2023-04-03T20:17:10.300Z,102242.94
2023-04-03T20:19:36.795Z,102244.03
2023-04-03T20:22:03.342Z,102223.28
2023-04-03T20:24:30.961Z,102236.19
2023-04-03T20:26:58.493Z,102208.06
2023-04-03T20:29:26.068Z,102245.38
2023-04-03T20:31:55.938Z,102247.94
2023-04-03T20:34:22.575Z,102213.88
2023-04-03T20:36:50.185Z,102220.09
2023-04-03T20:39:21.770Z,102244.69
2023-04-03T20:41:48.593Z,102236.63
2023-04-03T20:44:17.661Z,102233.88
2023-04-03T20:46:53.030Z,102209.88
2023-04-03T20:49:21.303Z,102185.78
2023-04-03T20:51:48.621Z,102227.72
2023-04-03T20:54:15.208Z,102203.13
2023-04-03T20:56:42.084Z,102193.44
2023-04-03T20:59:10.947Z,102227.09
2023-04-03T21:01:37.858Z,102222.28
2023-04-03T21:04:38.078Z,102217.88
2023-04-03T21:07:43.351Z,102218.97
2023-04-03T21:10:47.661Z,102224.03
2023-04-03T21:13:51.424Z,102225.13
2023-04-03T21:16:18.481Z,102224.16
2023-04-03T21:18:57.256Z,102229.91
2023-04-03T21:21:26.078Z,102228.25
2023-04-03T21:23:54.316Z,102228.00
2023-04-03T21:26:21.833Z,102228.84
2023-04-03T21:28:52.423Z,102205.06
2023-04-03T21:31:22.653Z,102198.09
2023-04-03T21:33:49.896Z,102208.00
2023-04-03T21:36:16.548Z,102196.19
2023-04-03T21:38:45.251Z,102219.16
2023-04-03T21:41:11.961Z,102229.41
2023-04-03T21:43:38.459Z,102225.56
2023-04-03T21:46:08.200Z,102185.06
2023-04-03T21:48:36.147Z,102221.16
2023-04-03T21:51:04.496Z,102232.19
2023-04-03T21:53:31.271Z,102203.84
2023-04-03T21:55:57.792Z,102230.75
2023-04-03T21:58:31.987Z,102178.84
2023-04-03T22:01:12.727Z,102200.16
2023-04-03T22:04:13.421Z,102215.66
2023-04-03T22:06:39.976Z,102191.66
2023-04-03T22:09:06.610Z,102190.44
2023-04-03T22:11:33.262Z,102205.91
2023-04-03T22:14:00.227Z,102217.28
2023-04-03T22:16:27.460Z,102209.75
2023-04-03T22:18:54.693Z,102185.84
2023-04-03T22:21:21.698Z,102180.94
2023-04-03T22:23:48.255Z,102206.84
2023-04-03T22:26:14.853Z,102206.03
2023-04-03T22:28:44.217Z,102190.41
2023-04-03T22:31:14.130Z,102161.22
2023-04-03T22:33:41.626Z,102212.09
2023-04-03T22:36:11.049Z,102203.16
2023-04-03T22:38:39.005Z,102201.63
2023-04-03T22:41:07.355Z,102197.56
2023-04-03T22:43:35.329Z,102179.72
2023-04-03T22:46:03.221Z,102193.34
2023-04-03T22:48:30.825Z,102208.97
2023-04-03T22:50:57.689Z,102202.34
2023-04-03T22:53:24.282Z,102194.16
2023-04-03T22:55:56.929Z,102193.97
2023-04-03T22:58:26.587Z,102141.78
2023-04-03T23:01:03.602Z,102165.13
2023-04-03T23:03:30.471Z,102181.16
2023-04-03T23:05:57.450Z,102212.19
2023-04-03T23:08:24.020Z,102208.75
2023-04-03T23:10:54.927Z,102188.75
2023-04-03T23:13:21.456Z,102202.34
2023-04-03T23:15:59.104Z,102210.69
2023-04-03T23:18:30.237Z,102203.75
2023-04-03T23:20:58.720Z,102202.34
2023-04-03T23:23:25.490Z,102197.88
2023-04-03T23:25:57.218Z,102218.13
2023-04-03T23:28:24.045Z,102210.38
2023-04-03T23:30:51.693Z,102162.28
2023-04-03T23:33:18.179Z,102199.28
2023-04-03T23:35:46.712Z,102219.56
2023-04-03T23:38:13.597Z,102191.97
2023-04-03T23:40:41.997Z,102182.56
2023-04-03T23:43:08.872Z,102184.44
2023-04-03T23:45:36.052Z,102155.94
2023-04-03T23:48:02.862Z,102190.13
2023-04-03T23:50:29.806Z,102176.44
2023-04-03T23:52:56.365Z,102224.44
2023-04-03T23:55:23.250Z,102210.56
2023-04-03T23:57:49.777Z,102192.41
